sensor_id;sensor_type;location;lat;lon;timestamp;temperature;humidity
23591;DHT22;11973;52.098;7.582;2022-11-18T13:41:13;7.80;99.90
23591;DHT22;11973;52.098;7.582;2022-11-18T13:43:46;7.70;99.90
23591;DHT22;11973;52.098;7.582;2022-11-18T13:46:17;7.70;99.90
23591;DHT22;11973;52.098;7.582;2022-11-18T13:48:54;7.80;99.90
23591;DHT22;11973;52.098;7.582;2022-11-18T13:51:21;7.90;99.90
23591;DHT22;11973;52.098;7.582;2022-11-18T13:53:47;7.90;99.90
23591;DHT22;11973;52.098;7.582;2022-11-18T13:56:25;8.00;99.90
23591;DHT22;11973;52.098;7.582;2022-11-18T13:58:54;8.00;99.90
23591;DHT22;11973;52.098;7.582;2022-11-18T14:01:28;8.10;99.90
23591;DHT22;11973;52.098;7.582;2022-11-18T14:04:03;8.10;99.90
23591;DHT22;11973;52.098;7.582;2022-11-18T14:06:32;8.10;99.90
23591;DHT22;11973;52.098;7.582;2022-11-18T14:11:38;8.10;99.90
23591;DHT22;11973;52.098;7.582;2022-11-18T14:14:05;8.10;99.90
23591;DHT22;11973;52.098;7.582;2022-11-18T14:16:39;8.10;99.90
23591;DHT22;11973;52.098;7.582;2022-11-18T14:19:05;8.10;99.90
23591;DHT22;11973;52.098;7.582;2022-11-18T14:21:35;8.20;99.90
23591;DHT22;11973;52.098;7.582;2022-11-18T14:24:03;8.20;99.90
23591;DHT22;11973;52.098;7.582;2022-11-18T14:26:35;8.20;99.90
23591;DHT22;11973;52.098;7.582;2022-11-18T14:29:13;8.20;99.90
23591;DHT22;11973;52.098;7.582;2022-11-18T14:31:41;8.20;99.90
23591;DHT22;11973;52.098;7.582;2022-11-18T14:34:20;8.20;99.90
23591;DHT22;11973;52.098;7.582;2022-11-18T14:36:49;8.10;99.90
23591;DHT22;11973;52.098;7.582;2022-11-18T14:39:30;8.10;99.90
23591;DHT22;11973;52.098;7.582;2022-11-18T14:41:57;8.10;99.90
23591;DHT22;11973;52.098;7.582;2022-11-18T14:44:25;8.00;99.90
23591;DHT22;11973;52.098;7.582;2022-11-18T14:46:57;8.00;99.90
23591;DHT22;11973;52.098;7.582;2022-11-18T14:49:25;8.00;99.90
23591;DHT22;11973;52.098;7.582;2022-11-18T14:51:53;7.80;99.90
23591;DHT22;11973;52.098;7.582;2022-11-18T14:54:20;7.80;99.90
23591;DHT22;11973;52.098;7.582;2022-11-18T14:56:48;7.70;99.90
23591;DHT22;11973;52.098;7.582;2022-11-18T14:59:16;7.70;99.90
23591;DHT22;11973;52.098;7.582;2022-11-18T15:01:43;7.60;99.90
23591;DHT22;11973;52.098;7.582;2022-11-18T15:04:09;7.60;99.90
23591;DHT22;11973;52.098;7.582;2022-11-18T15:06:35;7.50;99.90
23591;DHT22;11973;52.098;7.582;2022-11-18T15:09:01;7.50;99.90
23591;DHT22;11973;52.098;7.582;2022-11-18T15:11:27;7.50;99.90
23591;DHT22;11973;52.098;7.582;2022-11-18T15:13:53;7.40;99.90
23591;DHT22;11973;52.098;7.582;2022-11-18T15:16:23;7.40;99.90
23591;DHT22;11973;52.098;7.582;2022-11-18T15:18:52;7.30;99.90
23591;DHT22;11973;52.098;7.582;2022-11-18T15:21:18;7.30;99.90
23591;DHT22;11973;52.098;7.582;2022-11-18T15:23:44;7.20;99.90
23591;DHT22;11973;52.098;7.582;2022-11-18T15:26:20;7.20;99.90
23591;DHT22;11973;52.098;7.582;2022-11-18T15:28:50;7.10;99.90
23591;DHT22;11973;52.098;7.582;2022-11-18T15:31:17;7.10;99.90
23591;DHT22;11973;52.098;7.582;2022-11-18T15:33:44;7.10;99.90
23591;DHT22;11973;52.098;7.582;2022-11-18T15:36:18;7.10;99.90
23591;DHT22;11973;52.098;7.582;2022-11-18T15:38:44;7.00;99.90
23591;DHT22;11973;52.098;7.582;2022-11-18T15:41:15;6.90;99.90
23591;DHT22;11973;52.098;7.582;2022-11-18T15:43:41;6.90;99.90
23591;DHT22;11973;52.098;7.582;2022-11-18T15:46:07;6.90;99.90
23591;DHT22;11973;52.098;7.582;2022-11-18T15:48:34;6.80;99.90
23591;DHT22;11973;52.098;7.582;2022-11-18T15:51:00;6.80;99.90
23591;DHT22;11973;52.098;7.582;2022-11-18T15:53:26;6.80;99.90
23591;DHT22;11973;52.098;7.582;2022-11-18T15:55:51;6.70;99.90
23591;DHT22;11973;52.098;7.582;2022-11-18T15:58:17;6.60;99.90
23591;DHT22;11973;52.098;7.582;2022-11-18T16:00:43;6.60;99.90
23591;DHT22;11973;52.098;7.582;2022-11-18T16:03:08;6.60;99.90
23591;DHT22;11973;52.098;7.582;2022-11-18T16:05:34;6.60;99.90
23591;DHT22;11973;52.098;7.582;2022-11-18T16:08:00;6.60;99.90
23591;DHT22;11973;52.098;7.582;2022-11-18T16:10:25;6.60;99.90
23591;DHT22;11973;52.098;7.582;2022-11-18T16:13:10;6.50;99.90
23591;DHT22;11973;52.098;7.582;2022-11-18T16:15:35;6.50;99.90
23591;DHT22;11973;52.098;7.582;2022-11-18T16:18:14;6.50;99.90
23591;DHT22;11973;52.098;7.582;2022-11-18T16:20:40;6.50;99.90
23591;DHT22;11973;52.098;7.582;2022-11-18T16:23:06;6.40;99.90
23591;DHT22;11973;52.098;7.582;2022-11-18T16:25:32;6.40;99.90
23591;DHT22;11973;52.098;7.582;2022-11-18T16:27:57;6.40;99.90
23591;DHT22;11973;52.098;7.582;2022-11-18T16:30:23;6.40;99.90
23591;DHT22;11973;52.098;7.582;2022-11-18T16:33:07;6.40;99.90
23591;DHT22;11973;52.098;7.582;2022-11-18T16:35:33;6.30;99.90
23591;DHT22;11973;52.098;7.582;2022-11-18T16:37:59;6.30;99.90
23591;DHT22;11973;52.098;7.582;2022-11-18T16:40:24;6.30;99.90
23591;DHT22;11973;52.098;7.582;2022-11-18T16:42:51;6.30;99.90
23591;DHT22;11973;52.098;7.582;2022-11-18T16:45:17;6.30;99.90
23591;DHT22;11973;52.098;7.582;2022-11-18T16:47:44;6.30;99.90
23591;DHT22;11973;52.098;7.582;2022-11-18T16:50:10;6.30;99.90
23591;DHT22;11973;52.098;7.582;2022-11-18T16:52:36;6.20;99.90
23591;DHT22;11973;52.098;7.582;2022-11-18T16:55:02;6.20;99.90
23591;DHT22;11973;52.098;7.582;2022-11-18T16:57:28;6.20;99.90
23591;DHT22;11973;52.098;7.582;2022-11-18T16:59:55;6.20;99.90
23591;DHT22;11973;52.098;7.582;2022-11-18T17:02:21;6.10;99.90
23591;DHT22;11973;52.098;7.582;2022-11-18T17:04:48;6.10;99.90
23591;DHT22;11973;52.098;7.582;2022-11-18T17:07:14;6.10;99.90
23591;DHT22;11973;52.098;7.582;2022-11-18T17:09:39;6.00;99.90
23591;DHT22;11973;52.098;7.582;2022-11-18T17:12:05;6.00;99.90
23591;DHT22;11973;52.098;7.582;2022-11-18T17:14:31;6.00;99.90
23591;DHT22;11973;52.098;7.582;2022-11-18T17:16:57;6.00;99.90
23591;DHT22;11973;52.098;7.582;2022-11-18T17:19:23;6.00;99.90
23591;DHT22;11973;52.098;7.582;2022-11-18T17:21:52;5.90;99.90
23591;DHT22;11973;52.098;7.582;2022-11-18T17:24:19;5.90;99.90
23591;DHT22;11973;52.098;7.582;2022-11-18T17:26:45;5.90;99.90
23591;DHT22;11973;52.098;7.582;2022-11-18T17:29:12;5.80;99.90
23591;DHT22;11973;52.098;7.582;2022-11-18T17:31:38;5.80;99.90
23591;DHT22;11973;52.098;7.582;2022-11-18T17:34:04;5.80;99.90
23591;DHT22;11973;52.098;7.582;2022-11-18T17:36:30;5.80;99.90
23591;DHT22;11973;52.098;7.582;2022-11-18T17:38:58;5.80;99.90
23591;DHT22;11973;52.098;7.582;2022-11-18T17:41:26;5.80;99.90
23591;DHT22;11973;52.098;7.582;2022-11-18T17:44:13;5.80;99.90
23591;DHT22;11973;52.098;7.582;2022-11-18T17:46:39;5.80;99.90
23591;DHT22;11973;52.098;7.582;2022-11-18T17:49:16;5.70;99.90
23591;DHT22;11973;52.098;7.582;2022-11-18T17:51:48;5.70;99.90
23591;DHT22;11973;52.098;7.582;2022-11-18T17:54:15;5.80;99.90
23591;DHT22;11973;52.098;7.582;2022-11-18T17:56:41;5.60;99.90
23591;DHT22;11973;52.098;7.582;2022-11-18T17:59:07;5.60;99.90
23591;DHT22;11973;52.098;7.582;2022-11-18T18:01:32;5.60;99.90
23591;DHT22;11973;52.098;7.582;2022-11-18T18:03:58;5.60;99.90
23591;DHT22;11973;52.098;7.582;2022-11-18T18:06:24;5.50;99.90
23591;DHT22;11973;52.098;7.582;2022-11-18T18:08:54;5.50;99.90
23591;DHT22;11973;52.098;7.582;2022-11-18T18:11:20;5.50;99.90
23591;DHT22;11973;52.098;7.582;2022-11-18T18:13:46;5.50;99.90
23591;DHT22;11973;52.098;7.582;2022-11-18T18:16:31;5.40;99.90
23591;DHT22;11973;52.098;7.582;2022-11-18T18:18:59;5.40;99.90
23591;DHT22;11973;52.098;7.582;2022-11-18T18:21:25;5.40;99.90
23591;DHT22;11973;52.098;7.582;2022-11-18T18:23:51;5.40;99.90
23591;DHT22;11973;52.098;7.582;2022-11-18T18:26:17;5.30;99.90
23591;DHT22;11973;52.098;7.582;2022-11-18T18:28:43;5.30;99.90
23591;DHT22;11973;52.098;7.582;2022-11-18T18:31:11;5.30;99.90
23591;DHT22;11973;52.098;7.582;2022-11-18T18:33:37;5.30;99.90
23591;DHT22;11973;52.098;7.582;2022-11-18T18:36:07;5.30;99.90
23591;DHT22;11973;52.098;7.582;2022-11-18T18:38:35;5.30;99.90
23591;DHT22;11973;52.098;7.582;2022-11-18T18:41:02;5.30;99.90
23591;DHT22;11973;52.098;7.582;2022-11-18T18:43:28;5.30;99.90
23591;DHT22;11973;52.098;7.582;2022-11-18T18:46:23;5.20;99.90
23591;DHT22;11973;52.098;7.582;2022-11-18T18:49:07;5.20;99.90
23591;DHT22;11973;52.098;7.582;2022-11-18T18:52:04;5.20;99.90
23591;DHT22;11973;52.098;7.582;2022-11-18T18:54:53;5.10;99.90
23591;DHT22;11973;52.098;7.582;2022-11-18T18:57:22;5.10;99.90
23591;DHT22;11973;52.098;7.582;2022-11-18T19:00:02;5.00;99.90
23591;DHT22;11973;52.098;7.582;2022-11-18T19:02:53;5.00;99.90
23591;DHT22;11973;52.098;7.582;2022-11-18T19:05:23;5.00;99.90
23591;DHT22;11973;52.098;7.582;2022-11-18T19:07:54;4.90;99.90
23591;DHT22;11973;52.098;7.582;2022-11-18T19:13:58;4.90;99.90
23591;DHT22;11973;52.098;7.582;2022-11-18T19:16:40;4.90;99.90
23591;DHT22;11973;52.098;7.582;2022-11-18T19:19:24;4.80;99.90
23591;DHT22;11973;52.098;7.582;2022-11-18T19:22:12;4.80;99.90
23591;DHT22;11973;52.098;7.582;2022-11-18T19:24:41;4.80;99.90
23591;DHT22;11973;52.098;7.582;2022-11-18T19:27:15;4.70;99.90
23591;DHT22;11973;52.098;7.582;2022-11-18T19:29:45;4.80;99.90
23591;DHT22;11973;52.098;7.582;2022-11-18T19:32:15;4.70;99.90
23591;DHT22;11973;52.098;7.582;2022-11-18T19:34:41;4.70;99.90
23591;DHT22;11973;52.098;7.582;2022-11-18T19:37:07;4.70;99.90
23591;DHT22;11973;52.098;7.582;2022-11-18T19:39:34;4.70;99.90
23591;DHT22;11973;52.098;7.582;2022-11-18T19:42:00;4.60;99.90
23591;DHT22;11973;52.098;7.582;2022-11-18T19:44:25;4.60;99.90
23591;DHT22;11973;52.098;7.582;2022-11-18T19:46:51;4.60;99.90
23591;DHT22;11973;52.098;7.582;2022-11-18T19:49:17;4.60;99.90
23591;DHT22;11973;52.098;7.582;2022-11-18T19:51:42;4.60;99.90
23591;DHT22;11973;52.098;7.582;2022-11-18T19:54:08;4.60;99.90
23591;DHT22;11973;52.098;7.582;2022-11-18T19:56:34;4.60;99.90
23591;DHT22;11973;52.098;7.582;2022-11-18T19:58:59;4.50;99.90
23591;DHT22;11973;52.098;7.582;2022-11-18T20:01:27;4.50;99.90
23591;DHT22;11973;52.098;7.582;2022-11-18T20:03:55;4.50;99.90
23591;DHT22;11973;52.098;7.582;2022-11-18T20:06:23;4.50;99.90
23591;DHT22;11973;52.098;7.582;2022-11-18T20:08:49;4.50;99.90
23591;DHT22;11973;52.098;7.582;2022-11-18T20:11:17;4.50;99.90
23591;DHT22;11973;52.098;7.582;2022-11-18T20:13:44;4.40;99.90
23591;DHT22;11973;52.098;7.582;2022-11-18T20:16:19;4.40;99.90
23591;DHT22;11973;52.098;7.582;2022-11-18T20:18:46;4.40;99.90
23591;DHT22;11973;52.098;7.582;2022-11-18T20:21:16;4.40;99.90
23591;DHT22;11973;52.098;7.582;2022-11-18T20:23:55;4.30;99.90
23591;DHT22;11973;52.098;7.582;2022-11-18T20:26:24;4.30;99.90
23591;DHT22;11973;52.098;7.582;2022-11-18T20:28:50;4.30;99.90
23591;DHT22;11973;52.098;7.582;2022-11-18T20:31:18;4.30;99.90
23591;DHT22;11973;52.098;7.582;2022-11-18T20:33:46;4.20;99.90
23591;DHT22;11973;52.098;7.582;2022-11-18T20:36:16;4.20;99.90
23591;DHT22;11973;52.098;7.582;2022-11-18T20:38:46;4.20;99.90
23591;DHT22;11973;52.098;7.582;2022-11-18T20:41:12;4.20;99.90
23591;DHT22;11973;52.098;7.582;2022-11-18T20:43:38;4.10;99.90
23591;DHT22;11973;52.098;7.582;2022-11-18T20:46:06;4.10;99.90
23591;DHT22;11973;52.098;7.582;2022-11-18T20:48:33;4.10;99.90
23591;DHT22;11973;52.098;7.582;2022-11-18T20:51:06;4.10;99.90
23591;DHT22;11973;52.098;7.582;2022-11-18T20:53:33;4.10;99.90
23591;DHT22;11973;52.098;7.582;2022-11-18T20:56:05;4.20;99.90
23591;DHT22;11973;52.098;7.582;2022-11-18T20:58:32;4.10;99.90
23591;DHT22;11973;52.098;7.582;2022-11-18T21:03:36;4.00;99.90
23591;DHT22;11973;52.098;7.582;2022-11-18T21:06:09;4.00;99.90
23591;DHT22;11973;52.098;7.582;2022-11-18T21:08:36;3.90;99.90
23591;DHT22;11973;52.098;7.582;2022-11-18T21:11:04;3.90;99.90
23591;DHT22;11973;52.098;7.582;2022-11-18T21:13:31;3.90;99.90
23591;DHT22;11973;52.098;7.582;2022-11-18T21:16:15;3.90;99.90
23591;DHT22;11973;52.098;7.582;2022-11-18T21:18:41;3.90;99.90
23591;DHT22;11973;52.098;7.582;2022-11-18T21:21:07;3.90;99.90
23591;DHT22;11973;52.098;7.582;2022-11-18T21:23:55;3.90;99.90
23591;DHT22;11973;52.098;7.582;2022-11-18T21:26:23;3.80;99.90
23591;DHT22;11973;52.098;7.582;2022-11-18T21:28:52;3.80;99.90
23591;DHT22;11973;52.098;7.582;2022-11-18T21:31:18;3.80;99.90
23591;DHT22;11973;52.098;7.582;2022-11-18T21:33:43;3.80;99.90
23591;DHT22;11973;52.098;7.582;2022-11-18T21:36:09;3.80;99.90
23591;DHT22;11973;52.098;7.582;2022-11-18T21:38:35;3.80;99.90
23591;DHT22;11973;52.098;7.582;2022-11-18T21:41:04;3.70;99.90
23591;DHT22;11973;52.098;7.582;2022-11-18T21:43:35;3.70;99.90
23591;DHT22;11973;52.098;7.582;2022-11-18T21:46:05;3.70;99.90
23591;DHT22;11973;52.098;7.582;2022-11-18T21:48:31;3.70;99.90
23591;DHT22;11973;52.098;7.582;2022-11-18T21:50:58;3.70;99.90
23591;DHT22;11973;52.098;7.582;2022-11-18T21:53:24;3.70;99.90
23591;DHT22;11973;52.098;7.582;2022-11-18T21:55:49;3.70;99.90
23591;DHT22;11973;52.098;7.582;2022-11-18T21:58:16;3.60;99.90
23591;DHT22;11973;52.098;7.582;2022-11-18T22:00:41;3.60;99.90
23591;DHT22;11973;52.098;7.582;2022-11-18T22:03:08;3.60;99.90
23591;DHT22;11973;52.098;7.582;2022-11-18T22:05:34;3.60;99.90
23591;DHT22;11973;52.098;7.582;2022-11-18T22:08:00;3.60;99.90
23591;DHT22;11973;52.098;7.582;2022-11-18T22:10:26;3.60;99.90
23591;DHT22;11973;52.098;7.582;2022-11-18T22:12:52;3.50;99.90
23591;DHT22;11973;52.098;7.582;2022-11-18T22:15:18;3.50;99.90
23591;DHT22;11973;52.098;7.582;2022-11-18T22:17:44;3.50;99.90
23591;DHT22;11973;52.098;7.582;2022-11-18T22:20:10;3.50;99.90
23591;DHT22;11973;52.098;7.582;2022-11-18T22:22:39;3.50;99.90
23591;DHT22;11973;52.098;7.582;2022-11-18T22:25:05;3.50;99.90
23591;DHT22;11973;52.098;7.582;2022-11-18T22:27:30;3.50;99.90
23591;DHT22;11973;52.098;7.582;2022-11-18T22:29:56;3.50;99.90
23591;DHT22;11973;52.098;7.582;2022-11-18T22:32:22;3.50;99.90
23591;DHT22;11973;52.098;7.582;2022-11-18T22:34:47;3.50;99.90
23591;DHT22;11973;52.098;7.582;2022-11-18T22:37:13;3.40;99.90
23591;DHT22;11973;52.098;7.582;2022-11-18T22:39:39;3.40;99.90
23591;DHT22;11973;52.098;7.582;2022-11-18T22:42:05;3.40;99.90
23591;DHT22;11973;52.098;7.582;2022-11-18T22:44:49;3.40;99.90
23591;DHT22;11973;52.098;7.582;2022-11-18T22:47:15;3.40;99.90
23591;DHT22;11973;52.098;7.582;2022-11-18T22:49:40;3.40;99.90
23591;DHT22;11973;52.098;7.582;2022-11-18T22:52:06;3.40;99.90
23591;DHT22;11973;52.098;7.582;2022-11-18T22:54:31;3.40;99.90
23591;DHT22;11973;52.098;7.582;2022-11-18T22:56:57;3.30;99.90
23591;DHT22;11973;52.098;7.582;2022-11-18T22:59:23;3.30;99.90
23591;DHT22;11973;52.098;7.582;2022-11-18T23:01:50;3.30;99.90
23591;DHT22;11973;52.098;7.582;2022-11-18T23:04:15;3.30;99.90
23591;DHT22;11973;52.098;7.582;2022-11-18T23:06:41;3.30;99.90
23591;DHT22;11973;52.098;7.582;2022-11-18T23:09:08;3.30;99.90
23591;DHT22;11973;52.098;7.582;2022-11-18T23:11:34;3.30;99.90
23591;DHT22;11973;52.098;7.582;2022-11-18T23:14:18;3.30;99.90
23591;DHT22;11973;52.098;7.582;2022-11-18T23:16:44;3.30;99.90
23591;DHT22;11973;52.098;7.582;2022-11-18T23:19:12;3.30;99.90
23591;DHT22;11973;52.098;7.582;2022-11-18T23:21:39;3.30;99.90
23591;DHT22;11973;52.098;7.582;2022-11-18T23:24:05;3.30;99.90
23591;DHT22;11973;52.098;7.582;2022-11-18T23:26:31;3.20;99.90
23591;DHT22;11973;52.098;7.582;2022-11-18T23:28:57;3.30;99.90
23591;DHT22;11973;52.098;7.582;2022-11-18T23:31:24;3.20;99.90
23591;DHT22;11973;52.098;7.582;2022-11-18T23:33:52;3.20;99.90
23591;DHT22;11973;52.098;7.582;2022-11-18T23:36:18;3.20;99.90
23591;DHT22;11973;52.098;7.582;2022-11-18T23:38:45;3.20;99.90
23591;DHT22;11973;52.098;7.582;2022-11-18T23:41:13;3.20;99.90
23591;DHT22;11973;52.098;7.582;2022-11-18T23:43:39;3.30;99.90
23591;DHT22;11973;52.098;7.582;2022-11-18T23:46:06;3.20;99.90
23591;DHT22;11973;52.098;7.582;2022-11-18T23:48:34;3.20;99.90
23591;DHT22;11973;52.098;7.582;2022-11-18T23:53:35;3.10;99.90
23591;DHT22;11973;52.098;7.582;2022-11-18T23:56:04;3.10;99.90
23591;DHT22;11973;52.098;7.582;2022-11-18T23:58:30;3.10;99.90
